Airfield :
LOGIN :

Register | Disclaimer

   EN    FR    IT 

 










Legend :    VFR   Marginal VFR   IFR   Intensive IFR   Very Intensive IFR
Visi :
Ceiling :
>= 8 km
>= 3000ft
5 to 8 km
1000 to 3000 ft
1500m to 5 km
500 to 1000 ft
800 to 1500m
200 to 500 ft
< 800m
< 200 ft
Symbols :   Thunderstorms  Fog  Heavy snow  Heavy precipitations  Wind > 20 kt
SIGMETs :     Misc.  Thunderstorms  Icing  Turbulence  Mountain Waves  Volcanic Ashes







- Airport Elevation : 1411 ft
- IATA code : SZG


LOWS - Salzburg

CURRENT METAR :
  • 211450Z VRB03KT CAVOK 21/10 Q1019 NOSIG

EXPIRED METARs :
  • 211420Z 03004KT 350V060 CAVOK 21/10 Q1019 NOSIG
  • 211350Z 36004KT 300V050 CAVOK 20/10 Q1019 NOSIG
  • 211320Z 32005KT 230V020 CAVOK 20/09 Q1020 NOSIG
  • 211250Z VRB04KT CAVOK 20/09 Q1020 NOSIG
  • 211220Z 32005KT 290V040 CAVOK 20/09 Q1020 NOSIG
  • 211150Z 35004KT 280V050 CAVOK 19/09 Q1021 NOSIG

TAF TAF LOWS
Valid from the 21 at 12:00 until the 22 at 12:00 UTC


211115Z 2112/2212 34005KT CAVOK TX21/2115Z TN10/2204Z
TEMPO 2112/2116 03009KT 9999 FEW060
BECMG 2116/2118 15005KT
PROB30
TEMPO 2202/2206 VRB01KT 1200 BCFG NSC
BECMG 2210/2212 03005KT
No reported NOTAMs for that airfield.



MET'MAP, your aeronautical weather chart ! - Copyright ORBIFLY December 2007 - Disclaimer

ORBIFLY MET'MAP TEAM :

Programming & Development : Alexandra Zaïnal
Concept & Development : Baudouin d'Aumeries
Co-Development & Prog : Marc-Olivier Méhu
Technical & hardware support : Manuel Goepfert

Contact : metmap@orbifly.com




SOURCES & CREDITS :

   NOAA